Latest Weather Observations for kunanyi / Mount Wellington

IDT60901

Issued at 10:01 am EDT Tuesday 24 January 2017 (issued every 10 minutes, with the page automatically refreshed every 10 minutes)

About weather observations | Map of Hobart area stations | Latest observations for Hobart area | Other Formats
Station Details ID: 094087 Name: KUNANYI (MOUNT WELLINGTON PINNACLE) Lat: -42.90 Lon: 147.24 Height: 1260.47 m
Data from the previous 72 hours. | See also: Recent months at kunanyi / Mount Wellington
Date/Time
EDT
Temp
°C
App
Temp
°C
Dew
Point
°C
Rel
Hum
%
Delta-T
°C
Wind Press
QNH
hPa
Press
MSL
hPa
Rain since
9am
mm
Dir  Spd
km/h
Gust
km/h
Spd
kts
Gust
kts
24/10:00am 5.0 -9.5 3.5 90 0.7 WSW 69 91 37 49 - - 0.0
24/09:37am 4.8 -11.4 3.8 93 0.5 WSW 78 100 42 54 - - 0.0
24/09:30am 4.6 -12.0 3.7 94 0.4 WSW 80 96 43 52 - - 0.0
24/09:00am 4.8 -11.8 3.3 90 0.7 WSW 80 106 43 57 - - 0.6
24/08:30am 5.1 -9.6 3.8 91 0.6 WSW 70 106 38 57 - - 0.6
24/08:00am 5.0 -10.7 4.4 96 0.3 WSW 76 107 41 58 - - 0.6
24/07:56am 5.1 -10.6 4.5 96 0.3 WSW 76 107 41 58 - - 0.6
24/07:55am 5.0 -10.3 4.4 96 0.3 WSW 74 95 40 51 - - 0.6
24/07:30am 5.0 -8.2 4.3 95 0.3 WSW 63 93 34 50 - - 0.6
24/07:00am 5.3 -10.0 4.6 95 0.3 WSW 74 102 40 55 - - 0.6
24/06:30am 6.1 -9.8 5.4 95 0.3 WSW 78 102 42 55 - - 0.6
24/06:00am 7.6 -7.6 6.9 95 0.3 W 76 111 41 60 - - 0.6
24/05:30am 8.6 -6.9 7.2 91 0.7 W 78 107 42 58 - - 0.4
24/05:09am 9.5 -7.3 8.6 94 0.5 W 87 137 47 74 - - 0.4
24/05:00am 9.8 -6.3 8.7 93 0.6 W 83 113 45 61 - - 0.4
24/04:54am 10.4 -3.1 9.2 92 0.6 W 70 113 38 61 - - 0.4
24/04:30am 11.3 0.7 10.7 96 0.3 W 57 98 31 53 - - 0.2
24/04:00am 12.3 1.2 11.5 95 0.5 WNW 61 83 33 45 - - 0.0
24/03:30am 12.3 1.0 12.0 98 0.2 WNW 63 83 34 45 - - 0.0
24/03:00am 12.7 1.4 12.1 96 0.3 WNW 63 85 34 46 - - 0.0
24/02:45am 12.6 3.1 12.3 98 0.2 NW 54 87 29 47 - - 0.0
24/02:30am 12.6 4.1 12.1 97 0.3 NW 48 61 26 33 - - 0.0
24/02:16am 12.9 4.7 11.8 93 0.6 NW 46 65 25 35 - - 0.0
24/02:00am 13.1 4.1 11.5 90 0.9 NW 50 61 27 33 - - 0.0
24/01:31am 13.3 2.2 11.4 88 1.1 NW 61 82 33 44 - - 0.0
24/01:30am 13.3 1.8 11.4 88 1.1 NW 63 82 34 44 - - 0.0
24/01:00am 13.9 1.1 10.9 82 1.7 NNW 69 96 37 52 - - 0.0
24/12:35am 14.5 3.3 9.7 73 2.6 NNW 59 80 32 43 - - 0.0
24/12:30am 14.6 3.7 9.0 69 3.0 NNW 56 72 30 39 - - 0.0
24/12:06am 15.1 5.2 8.3 64 3.7 NNW 50 69 27 37 - - 0.0
24/12:00am 15.2 5.0 8.4 64 3.7 NNW 52 69 28 37 - - 0.0
 
Date/Time
EDT
Temp
°C
App
Temp
°C
Dew
Point
°C
Rel
Hum
%
Delta-T
°C
Wind Press
QNH
hPa
Press
MSL
hPa
Rain since
9am
mm
Dir  Spd
km/h
Gust
km/h
Spd
kts
Gust
kts
23/11:51pm 15.5 6.0 8.5 63 3.8 NNW 48 74 26 40 - - 0.0
23/11:49pm 15.5 6.0 8.5 63 3.8 NNW 48 74 26 40 - - 0.0
23/11:31pm 15.7 8.4 8.7 63 3.8 NNW 37 57 20 31 - - 0.0
23/11:30pm 15.7 8.8 8.9 64 3.7 NNW 35 54 19 29 - - 0.0
23/11:03pm 16.1 9.9 9.5 65 3.7 NNW 32 50 17 27 - - 0.0
23/11:00pm 16.2 9.8 9.4 64 3.8 NNW 33 50 18 27 - - 0.0
23/10:30pm 16.7 10.9 9.6 63 4.0 NNW 30 43 16 23 - - 0.0
23/10:00pm 17.5 9.9 9.2 58 4.6 NNW 39 52 21 28 - - 0.0
23/09:30pm 17.5 10.2 8.9 57 4.7 NNW 37 50 20 27 - - 0.0
23/09:00pm 17.8 11.6 9.2 57 4.8 NNW 32 43 17 23 - - 0.0
23/08:30pm 16.8 13.4 11.3 70 3.2 NW 20 28 11 15 - - 0.0
23/08:00pm 18.1 12.8 9.7 58 4.7 NW 28 39 15 21 - - 0.0
23/07:30pm 18.1 14.0 10.2 60 4.5 NNW 22 30 12 16 - - 0.0
23/07:00pm 18.8 16.5 10.6 59 4.7 NNW 13 17 7 9 - - 0.0
23/06:30pm 19.7 17.6 9.9 53 5.6 N 11 15 6 8 - - 0.0
23/06:00pm 20.2 19.7 11.9 59 4.9 N 6 9 3 5 - - 0.0
23/05:30pm 20.1 19.4 12.1 60 4.7 N 7 11 4 6 - - 0.0
23/05:00pm 21.0 19.1 11.9 56 5.4 NNW 13 19 7 10 - - 0.0
23/04:30pm 21.4 19.1 13.1 59 5.0 N 17 28 9 15 - - 0.0
23/04:00pm 20.3 17.4 11.0 55 5.4 N 17 24 9 13 - - 0.0
23/03:30pm 20.9 17.7 11.3 54 5.6 N 19 28 10 15 - - 0.0
23/03:00pm 20.1 16.9 11.8 59 4.9 N 20 33 11 18 - - 0.0
23/02:30pm 20.4 17.1 11.6 57 5.2 N 20 33 11 18 - - 0.0
23/02:00pm 19.1 15.3 11.2 60 4.6 N 22 35 12 19 - - 0.0
23/01:30pm 19.7 16.4 11.5 59 4.8 NNW 20 32 11 17 - - 0.0
23/01:00pm 17.8 14.4 11.4 66 3.7 NNW 20 33 11 18 - - 0.0
23/12:30pm 17.2 13.6 10.6 65 3.8 NNW 20 28 11 15 - - 0.0
23/12:00pm 17.2 12.5 10.8 66 3.7 NW 26 43 14 23 - - 0.0
23/11:30am 16.3 10.7 7.3 55 4.8 NW 26 37 14 20 - - 0.0
23/11:00am 16.6 11.2 8.1 57 4.6 NW 26 37 14 20 - - 0.0
23/10:30am 15.8 10.4 7.8 59 4.3 WNW 26 35 14 19 - - 0.0
23/10:00am 15.5 9.6 7.5 59 4.3 WNW 28 41 15 22 - - 0.0
23/09:30am 14.3 8.2 6.6 60 4.0 WNW 28 35 15 19 - - 0.0
23/09:00am 13.6 7.8 6.2 61 3.8 WNW 26 37 14 20 - - 0.0
23/08:30am 12.7 6.0 5.8 63 3.5 WNW 30 39 16 21 - - 0.0
23/08:00am 12.2 5.1 5.4 63 3.4 WNW 32 44 17 24 - - 0.0
23/07:30am 11.2 3.8 5.1 66 3.0 WNW 33 43 18 23 - - 0.0
23/07:00am 11.3 3.9 5.0 65 3.1 NW 33 44 18 24 - - 0.0
23/06:30am 11.2 3.5 5.3 67 2.9 WNW 35 48 19 26 - - 0.0
23/06:00am 11.1 2.7 5.8 70 2.6 WNW 39 46 21 25 - - 0.0
23/05:30am 11.1 4.0 6.5 73 2.3 WNW 33 46 18 25 - - 0.0
23/05:00am 10.9 3.9 7.0 77 2.0 WNW 33 41 18 22 - - 0.0
23/04:30am 10.9 3.8 8.1 83 1.5 WNW 35 43 19 23 - - 0.0
23/04:00am 10.8 3.9 8.7 87 1.1 NW 35 44 19 24 - - 0.0
23/03:30am 11.0 4.5 8.8 86 1.2 NW 33 41 18 22 - - 0.0
23/03:00am 11.4 5.1 9.0 85 1.3 NW 32 39 17 21 - - 0.0
23/02:30am 11.9 5.3 8.6 80 1.8 NW 33 46 18 25 - - 0.0
23/02:00am 11.8 5.3 8.1 78 1.9 NNW 32 35 17 19 - - 0.0
23/01:30am 11.6 5.5 8.3 80 1.7 NNW 30 35 16 19 - - 0.0
23/01:00am 11.3 5.9 9.4 88 1.0 NNW 28 32 15 17 - - 0.0
23/12:30am 10.9 6.0 9.8 93 0.6 NNW 26 30 14 16 - - 0.0
23/12:00am 10.1 5.9 9.6 97 0.3 NNW 22 28 12 15 - - 0.0
 
Date/Time
EDT
Temp
°C
App
Temp
°C
Dew
Point
°C
Rel
Hum
%
Delta-T
°C
Wind Press
QNH
hPa
Press
MSL
hPa
Rain since
9am
mm
Dir  Spd
km/h
Gust
km/h
Spd
kts
Gust
kts
22/11:30pm 10.5 6.3 9.9 96 0.3 NNW 22 28 12 15 - - 0.0
22/11:00pm 10.7 6.8 9.5 92 0.6 NNW 20 26 11 14 - - 0.0
22/10:30pm 10.8 7.5 9.4 91 0.8 NNW 17 20 9 11 - - 0.0
22/10:00pm 10.9 8.3 9.3 90 0.9 NNW 13 17 7 9 - - 0.0
22/09:30pm 11.1 8.4 9.0 87 1.1 NNW 13 15 7 8 - - 0.0
22/09:00pm 13.1 9.6 8.6 74 2.4 NW 17 20 9 11 - - 0.0
22/08:30pm 13.8 10.3 8.6 71 2.8 NW 17 20 9 11 - - 0.0
22/08:00pm 14.0 11.0 9.2 73 2.6 NW 15 19 8 10 - - 0.0
22/07:30pm 16.0 11.6 9.0 63 3.8 WNW 22 30 12 16 - - 0.0
22/07:00pm 16.4 11.6 8.9 61 4.1 WNW 24 33 13 18 - - 0.0
22/06:30pm 16.9 12.4 8.6 58 4.5 WNW 22 30 12 16 - - 0.0
22/06:00pm 17.7 12.4 8.6 55 5.0 WNW 26 35 14 19 - - 0.0
22/05:30pm 18.2 13.8 9.0 55 5.1 WNW 22 32 12 17 - - 0.0
22/05:00pm 17.7 12.1 8.6 55 5.0 WNW 28 39 15 21 - - 0.0
22/04:30pm 17.7 11.0 8.3 54 5.1 WNW 33 48 18 26 - - 0.0
22/04:00pm 18.4 12.8 8.9 54 5.3 WNW 28 41 15 22 - - 0.0
22/03:30pm 17.6 11.6 8.5 55 5.0 WNW 30 41 16 22 - - 0.0
22/03:00pm 17.7 11.6 8.3 54 5.1 WNW 30 44 16 24 - - 0.0
22/02:30pm 18.0 12.7 9.9 59 4.6 NW 28 44 15 24 - - 0.0
22/02:00pm 16.5 12.8 9.4 63 3.9 NW 19 37 10 20 - - 0.0
22/01:30pm 16.3 12.3 9.0 62 4.0 WNW 20 35 11 19 - - 0.0
22/01:00pm 16.9 12.1 8.8 59 4.5 WNW 24 33 13 18 - - 0.0
22/12:30pm 16.2 11.7 8.7 61 4.1 WNW 22 30 12 16 - - 0.0
22/12:00pm 15.2 9.3 7.5 60 4.1 WNW 28 37 15 20 - - 0.0
22/11:30am 14.4 7.6 7.0 61 3.9 W 32 41 17 22 - - 0.0
22/11:00am 13.8 6.4 6.7 62 3.7 W 35 54 19 29 - - 0.0
22/10:30am 13.2 5.2 5.9 61 3.7 W 37 46 20 25 - - 0.0
22/10:00am 12.6 4.2 5.8 63 3.4 W 39 54 21 29 - - 0.0
22/09:43am 12.5 4.5 5.7 63 3.4 WSW 37 57 20 31 - - 0.0
22/09:30am 11.6 3.4 5.0 64 3.2 WSW 37 50 20 27 - - 0.0
22/09:00am 11.5 2.1 5.4 66 3.0 W 44 57 24 31 - - 1.0
22/08:30am 11.3 2.4 5.2 66 3.0 WSW 41 56 22 30 - - 1.0
22/08:00am 11.1 3.5 5.6 69 2.7 W 35 50 19 27 - - 1.0
22/07:30am 10.2 2.4 4.8 69 2.6 WSW 35 46 19 25 - - 1.0
22/07:00am 9.7 0.8 4.9 72 2.3 WSW 41 50 22 27 - - 1.0
22/06:30am 8.6 1.1 3.6 71 2.3 WSW 32 41 17 22 - - 1.0
22/06:00am 8.1 0.6 1.5 63 2.9 SW 30 35 16 19 - - 1.0
22/05:30am 8.0 0.5 1.4 63 2.9 SW 30 37 16 20 - - 1.0
22/05:00am 7.7 -0.3 0.7 61 3.0 SW 32 35 17 19 - - 1.0
22/04:30am 7.1 0.2 0.1 61 3.0 SW 26 32 14 17 - - 1.0
22/04:00am 7.4 -0.1 1.5 66 2.6 SW 30 35 16 19 - - 1.0
22/03:30am 7.3 -2.0 0.3 61 3.0 SW 39 43 21 23 - - 1.0
22/03:00am 6.6 -3.7 0.5 65 2.6 SW 44 50 24 27 - - 1.0
22/02:30am 4.9 -4.5 2.6 85 1.0 SW 41 46 22 25 - - 1.0
22/02:00am 4.8 -4.4 3.3 90 0.7 SW 41 48 22 26 - - 1.0
22/01:30am 4.5 -5.0 3.8 95 0.3 SW 43 54 23 29 - - 1.0
22/01:00am 4.6 -3.1 3.6 93 0.5 WSW 33 46 18 25 - - 1.0
22/12:30am 4.7 -3.3 3.8 94 0.4 WSW 35 43 19 23 - - 1.0
22/12:00am 4.6 -2.5 3.7 94 0.4 W 30 37 16 20 - - 1.0
 
Date/Time
EDT
Temp
°C
App
Temp
°C
Dew
Point
°C
Rel
Hum
%
Delta-T
°C
Wind Press
QNH
hPa
Press
MSL
hPa
Rain since
9am
mm
Dir  Spd
km/h
Gust
km/h
Spd
kts
Gust
kts
21/11:30pm 4.9 -2.2 3.7 92 0.5 WSW 30 37 16 20 - - 1.0
21/11:00pm 5.2 -1.7 4.6 96 0.3 W 30 39 16 21 - - 1.0
21/10:30pm 5.4 -0.7 4.8 96 0.3 W 26 32 14 17 - - 1.0
21/10:00pm 5.7 0.7 4.8 94 0.4 W 20 28 11 15 - - 1.0
21/09:30pm 6.3 0.2 4.8 90 0.7 WSW 26 35 14 19 - - 1.0
21/09:00pm 6.6 2.6 4.9 89 0.8 WSW 15 24 8 13 - - 1.0
21/08:30pm 6.9 2.5 4.9 87 0.9 SW 17 24 9 13 - - 1.0
21/08:00pm 7.1 1.8 4.9 86 1.0 WSW 22 30 12 16 - - 1.0
21/07:30pm 7.4 2.5 5.0 85 1.1 WSW 20 37 11 20 - - 1.0
21/07:00pm 8.2 3.9 5.1 81 1.5 WSW 17 26 9 14 - - 1.0
21/06:30pm 8.6 4.3 5.4 80 1.6 WSW 17 28 9 15 - - 1.0
21/06:00pm 9.2 4.1 6.1 81 1.5 W 22 32 12 17 - - 1.0
21/05:30pm 8.0 2.8 5.3 83 1.3 WSW 22 32 12 17 - - 1.0
21/05:00pm 8.9 3.7 5.6 80 1.6 WSW 22 32 12 17 - - 1.0
21/04:30pm 10.2 5.8 7.3 82 1.5 WSW 20 32 11 17 - - 1.0
21/04:00pm 9.1 4.0 6.0 81 1.5 WSW 22 33 12 18 - - 1.0
21/03:30pm 8.3 3.8 6.1 86 1.1 WSW 19 26 10 14 - - 1.0
21/03:00pm 8.4 3.1 6.9 90 0.8 WSW 24 32 13 17 - - 1.0
21/02:30pm 8.8 3.8 8.2 96 0.3 W 24 35 13 19 - - 1.0
21/02:00pm 7.3 0.4 7.3 100 0.0 WSW 33 41 18 22 - - 1.0
21/01:30pm 6.9 1.2 6.9 100 0.0 WSW 26 37 14 20 - - 1.0
21/01:00pm 7.0 0.2 7.0 100 0.0 WSW 32 46 17 25 - - 1.0
21/12:30pm 6.6 0.1 6.6 100 0.0 WSW 30 39 16 21 - - 0.2
21/12:00pm 6.2 -1.0 6.1 99 0.0 WSW 33 48 18 26 - - 0.0
21/11:30am 6.2 -2.9 6.1 99 0.0 WSW 43 57 23 31 - - 0.0
21/11:00am 6.6 -2.4 6.6 100 0.0 WSW 43 61 23 33 - - 0.0
21/10:59am 6.5 -2.5 6.5 100 0.0 WSW 43 61 23 33 - - 0.0
21/10:30am 5.5 -3.9 5.5 100 0.0 WSW 44 59 24 32 - - 0.0
21/10:05am 5.7 -3.1 5.7 100 0.0 WSW 41 61 22 33 - - 0.0

Latest Capital City Observations: Canberra | Sydney | Melbourne | Brisbane | Adelaide | Perth | Hobart | Darwin

Other Formats:

Comma delimited format used in spreadsheet applications
http://www.bom.gov.au/fwo/IDT60901/IDT60901.95979.axf

JavaScript Object Notation format (JSON) in row-major order
http://www.bom.gov.au/fwo/IDT60901/IDT60901.95979.json